Latest Weather Observations for Badgingarra

IDW60801

Issued at 6:04 pm WST Sunday 24 January 2021 (issued every 10 minutes, with the page automatically refreshed every 10 minutes)

About weather observations | Map of weather stations | Latest weather observations for WA | Other Formats
Station Details ID: 009037 Name: BADGINGARRA RESEARCH STN Lat: -30.34 Lon: 115.54 Height: 275.0 m
Data from the previous 72 hours. | See also: Recent months at Badgingarra
Date/Time
WST
Temp
°C
App
Temp
°C
Dew
Point
°C
Rel
Hum
%
Delta-T
°C
Wind Press
QNH
hPa
Press
MSL
hPa
Rain since
9am
mm
Dir  Spd
km/h
Gust
km/h
Spd
kts
Gust
kts
24/06:00pm 22.8 18.0 11.5 49 6.4 SW 28 37 15 20 - - 0.0
24/05:30pm 22.4 18.0 11.8 51 6.0 SW 26 39 14 21 - - 0.0
24/05:00pm 23.1 18.3 11.5 48 6.6 SW 28 41 15 22 - - 0.0
24/04:30pm 24.6 19.9 11.9 45 7.3 SW 28 35 15 19 - - 0.0
24/04:00pm 23.5 18.4 11.9 48 6.6 SW 30 41 16 22 - - 0.0
24/03:30pm 24.6 20.3 11.9 45 7.3 WSW 26 33 14 18 - - 0.0
24/03:00pm 23.8 19.6 12.4 48 6.6 SW 26 37 14 20 - - 0.0
24/02:30pm 24.4 20.3 13.9 52 6.2 SW 28 39 15 21 - - 0.0
24/02:00pm 22.7 18.3 14.0 58 5.1 SSW 30 41 16 22 - - 0.0
24/01:30pm 22.5 17.6 15.4 64 4.3 SW 35 46 19 25 - - 0.0
24/01:02pm 24.8 20.8 14.0 51 6.4 SW 28 46 15 25 - - 0.0
24/01:00pm 25.4 21.4 12.9 45 7.3 SW 26 41 14 22 - - 0.0
24/12:30pm 24.9 21.3 13.1 48 6.9 SW 24 37 13 20 - - 0.0
24/12:00pm 24.3 20.8 14.4 54 5.9 WSW 26 39 14 21 - - 0.0
24/11:30am 24.5 22.0 15.1 55 5.7 SW 22 33 12 18 - - 0.0
24/11:00am 22.3 18.3 16.3 69 3.7 WSW 32 39 17 21 - - 0.0
24/10:30am 23.7 21.6 14.7 57 5.4 WSW 19 28 10 15 - - 0.0
24/10:00am 25.2 22.2 13.7 49 6.8 SW 22 32 12 17 - - 0.0
24/09:30am 23.3 19.7 12.9 52 6.1 SW 24 39 13 21 - - 0.0
24/09:00am 23.4 20.7 13.0 52 6.1 SSW 19 33 10 18 - - 0.0
24/08:30am 22.1 20.4 13.7 59 4.9 SSW 15 22 8 12 - - 0.0
24/08:00am 20.3 17.7 13.3 64 4.0 SSW 19 28 10 15 - - 0.0
24/07:30am 20.6 19.3 13.8 65 4.0 SSW 13 19 7 10 - - 0.0
24/07:00am 19.3 18.6 13.3 68 3.5 SW 9 13 5 7 - - 0.0
24/06:30am 17.7 17.6 13.2 75 2.6 SW 6 7 3 4 - - 0.0
24/06:00am 16.4 15.6 11.8 74 2.5 SW 7 9 4 5 - - 0.0
24/05:30am 18.6 17.3 12.6 68 3.4 SW 11 13 6 7 - - 0.0
24/05:00am 18.9 17.7 12.9 68 3.4 SW 11 13 6 7 - - 0.0
24/04:30am 18.8 17.2 12.8 68 3.4 SW 13 19 7 10 - - 0.0
24/04:00am 18.8 17.2 12.8 68 3.4 SSW 13 17 7 9 - - 0.0
24/03:30am 18.8 17.0 13.2 70 3.2 SW 15 22 8 12 - - 0.0
24/03:00am 18.7 17.2 13.1 70 3.2 SW 13 17 7 9 - - 0.0
24/02:30am 18.7 17.1 12.9 69 3.3 SW 13 17 7 9 - - 0.0
24/02:00am 18.6 16.3 13.0 70 3.2 SW 17 20 9 11 - - 0.0
24/01:30am 18.6 15.7 12.8 69 3.3 SSW 20 26 11 14 - - 0.0
24/01:00am 18.5 16.2 13.1 71 3.1 SW 17 22 9 12 - - 0.0
24/12:30am 18.2 16.0 13.3 73 2.8 SW 17 20 9 11 - - 0.0
24/12:00am 17.1 15.7 13.4 79 2.1 SW 13 17 7 9 - - 0.0
 
Date/Time
WST
Temp
°C
App
Temp
°C
Dew
Point
°C
Rel
Hum
%
Delta-T
°C
Wind Press
QNH
hPa
Press
MSL
hPa
Rain since
9am
mm
Dir  Spd
km/h
Gust
km/h
Spd
kts
Gust
kts
23/11:30pm 17.8 15.4 13.7 77 2.4 SSW 19 26 10 14 - - 0.0
23/11:00pm 18.1 14.4 13.8 76 2.5 SW 26 33 14 18 - - 0.0
23/10:30pm 18.6 15.5 14.5 77 2.4 SW 24 30 13 16 - - 0.0
23/10:00pm 18.9 16.8 14.8 77 2.4 SW 19 24 10 13 - - 0.0
23/09:30pm 19.0 17.0 14.9 77 2.4 SW 19 24 10 13 - - 0.0
23/09:00pm 19.9 18.8 15.3 75 2.7 SW 15 19 8 10 - - 0.0
23/08:30pm 19.8 17.6 15.0 74 2.9 WSW 20 24 11 13 - - 0.0
23/08:00pm 20.3 18.9 15.5 74 2.9 WSW 17 26 9 14 - - 0.0
23/07:30pm 20.5 18.1 15.5 73 3.0 WSW 22 30 12 16 - - 0.0
23/07:00pm 20.9 18.6 15.7 72 3.1 SW 22 32 12 17 - - 0.0
23/06:30pm 21.4 18.4 15.9 71 3.3 WSW 26 33 14 18 - - 0.0
23/06:00pm 22.3 19.8 16.1 68 3.8 WSW 24 33 13 18 - - 0.0
23/05:30pm 23.4 20.8 16.0 63 4.5 WSW 24 32 13 17 - - 0.0
23/05:00pm 25.3 22.6 15.6 55 5.9 WSW 24 33 13 18 - - 0.0
23/04:30pm 26.2 22.8 15.9 53 6.4 WSW 28 35 15 19 - - 0.0
23/04:00pm 26.8 23.9 16.1 52 6.6 SW 26 39 14 21 - - 0.0
23/03:30pm 26.8 24.3 16.1 52 6.6 SW 24 37 13 20 - - 0.0
23/03:00pm 26.6 23.1 16.5 54 6.3 SW 30 37 16 20 - - 0.0
23/02:30pm 27.0 23.8 16.3 52 6.7 SW 28 37 15 20 - - 0.0
23/02:00pm 27.0 23.8 16.3 52 6.7 SW 28 39 15 21 - - 0.0
23/01:30pm 26.9 24.0 16.2 52 6.7 SW 26 39 14 21 - - 0.0
23/01:00pm 27.1 24.2 17.0 54 6.4 SW 28 39 15 21 - - 0.0
23/12:30pm 26.6 23.2 16.8 55 6.2 SW 30 39 16 21 - - 0.0
23/12:00pm 25.8 22.8 16.9 58 5.6 SW 28 41 15 22 - - 0.0
23/11:30am 27.3 24.6 17.5 55 6.2 SW 28 41 15 22 - - 0.0
23/11:00am 26.7 24.1 17.8 58 5.7 WSW 28 43 15 23 - - 0.0
23/10:30am 27.0 25.8 17.5 56 6.0 WSW 20 33 11 18 - - 0.0
23/10:00am 25.7 24.0 17.1 59 5.4 SW 22 30 12 16 - - 0.0
23/09:30am 25.3 24.0 17.2 61 5.1 WSW 20 32 11 17 - - 0.0
23/09:00am 24.7 24.0 18.2 67 4.1 WSW 19 24 10 13 - - 0.0
23/08:30am 23.3 22.5 18.0 72 3.4 W 19 24 10 13 - - 0.0
23/08:00am 22.0 22.1 18.4 80 2.3 WSW 15 22 8 12 - - 0.0
23/07:30am 21.2 20.6 18.4 84 1.8 WSW 19 24 10 13 - - 0.0
23/07:00am 20.1 21.2 18.9 93 0.8 W 11 17 6 9 - - 0.0
23/06:30am 19.4 21.3 18.6 95 0.5 WNW 6 9 3 5 - - 0.0
23/06:00am 18.6 19.2 17.8 95 0.5 W 11 13 6 7 - - 0.0
23/05:30am 18.0 18.4 17.2 95 0.5 WSW 11 13 6 7 - - 0.0
23/05:00am 16.7 16.9 15.7 94 0.6 W 9 11 5 6 - - 0.0
23/04:30am 17.2 16.8 16.1 93 0.7 W 13 15 7 8 - - 0.0
23/04:00am 17.3 17.4 15.6 90 1.0 W 9 13 5 7 - - 0.0
23/03:30am 17.4 16.3 15.4 88 1.2 W 15 19 8 10 - - 0.0
23/03:00am 16.8 17.0 14.1 84 1.6 NNE 6 7 3 4 - - 0.0
23/02:30am 16.8 18.1 14.1 84 1.6 CALM 0 0 0 0 - - 0.0
23/02:00am 17.5 18.7 14.8 84 1.6 E 2 6 1 3 - - 0.0
23/01:30am 18.0 19.1 14.7 81 1.9 ESE 2 6 1 3 - - 0.0
23/01:00am 18.4 18.6 14.3 77 2.4 SSE 6 7 3 4 - - 0.0
23/12:30am 19.3 18.2 15.2 77 2.4 S 15 17 8 9 - - 0.0
23/12:00am 19.6 18.4 14.0 70 3.3 SSW 13 17 7 9 - - 0.0
 
Date/Time
WST
Temp
°C
App
Temp
°C
Dew
Point
°C
Rel
Hum
%
Delta-T
°C
Wind Press
QNH
hPa
Press
MSL
hPa
Rain since
9am
mm
Dir  Spd
km/h
Gust
km/h
Spd
kts
Gust
kts
22/11:30pm 20.8 18.1 13.5 63 4.2 SSW 20 24 11 13 - - 0.0
22/11:00pm 21.3 18.6 13.0 59 4.8 SSW 19 26 10 14 - - 0.0
22/10:30pm 22.3 18.3 13.1 56 5.3 S 26 30 14 16 - - 0.0
22/10:00pm 22.8 18.0 13.0 54 5.7 SSE 30 39 16 21 - - 0.0
22/09:30pm 23.1 18.5 13.6 55 5.6 S 30 37 16 20 - - 0.0
22/09:00pm 23.6 18.8 14.0 55 5.7 S 32 39 17 21 - - 0.0
22/08:30pm 24.1 19.2 14.2 54 5.9 S 33 41 18 22 - - 0.0
22/08:00pm 24.8 20.4 15.1 54 5.9 SSW 32 39 17 21 - - 0.0
22/07:30pm 27.1 22.1 13.4 42 8.2 SSW 32 43 17 23 - - 0.0
22/07:00pm 28.2 24.4 14.8 44 8.2 SSW 28 33 15 18 - - 0.0
22/06:30pm 29.7 25.4 14.3 39 9.4 SSW 30 39 16 21 - - 0.0
22/06:00pm 30.7 26.1 13.5 35 10.4 SSW 30 37 16 20 - - 0.0
22/05:30pm 32.0 26.9 13.2 31 11.4 SSW 32 39 17 21 - - 0.0
22/05:00pm 33.3 27.8 12.3 28 12.6 SSW 33 43 18 23 - - 0.0
22/04:30pm 34.7 28.2 11.8 25 13.7 SSW 37 48 20 26 - - 0.0
22/04:00pm 36.0 29.5 11.6 23 14.7 SW 37 46 20 25 - - 0.0
22/03:30pm 38.2 32.6 8.9 17 17.1 SW 28 41 15 22 - - 0.0
22/03:00pm 38.3 34.5 9.0 17 17.1 SW 19 32 10 17 - - 0.0
22/02:30pm 38.9 35.9 9.4 17 17.4 WSW 15 26 8 14 - - 0.0
22/02:00pm 37.8 34.4 5.7 14 17.8 WSW 13 20 7 11 - - 0.0
22/01:30pm 37.4 34.5 6.4 15 17.4 SSE 11 19 6 10 - - 0.0
22/01:00pm 37.1 34.1 6.2 15 17.2 SW 11 26 6 14 - - 0.0
22/12:30pm 35.7 32.9 6.9 17 16.1 SSE 11 20 6 11 - - 0.0
22/12:00pm 35.7 32.9 8.5 19 15.6 S 13 19 7 10 - - 0.0
22/11:30am 35.4 32.9 9.7 21 15.0 SSE 13 19 7 10 - - 0.0
22/11:00am 33.5 31.1 11.4 26 13.1 E 15 24 8 13 - - 0.0
22/10:30am 32.6 29.9 12.8 30 12.0 E 19 26 10 14 - - 0.0
22/10:00am 30.7 27.7 12.6 33 10.8 E 20 28 11 15 - - 0.0
22/09:30am 28.9 26.0 12.8 37 9.6 E 20 26 11 14 - - 0.0
22/09:00am 27.1 23.4 12.7 41 8.5 E 24 30 13 16 - - 0.0
22/08:30am 25.6 21.6 13.1 46 7.4 E 26 32 14 17 - - 0.0
22/08:00am 24.5 20.2 13.1 49 6.7 ESE 28 33 15 18 - - 0.0
22/07:30am 22.9 19.3 13.1 54 5.7 ESE 24 32 13 17 - - 0.0
22/07:00am 22.0 18.3 12.8 56 5.3 E 24 32 13 17 - - 0.0
22/06:30am 21.3 17.2 12.7 58 4.9 SE 26 33 14 18 - - 0.0
22/06:00am 20.9 16.0 12.6 59 4.8 ESE 30 39 16 21 - - 0.0
22/05:30am 20.9 16.3 12.3 58 4.9 ESE 28 37 15 20 - - 0.0
22/05:00am 21.0 17.9 12.2 57 5.0 SE 20 30 11 16 - - 0.0
22/04:30am 22.0 18.2 12.3 54 5.6 SE 24 35 13 19 - - 0.0
22/04:00am 22.1 18.5 11.8 52 5.8 SE 22 32 12 17 - - 0.0
22/03:30am 23.0 17.8 11.7 49 6.4 ESE 30 39 16 21 - - 0.0
22/03:00am 23.5 17.8 11.9 48 6.6 ESE 33 41 18 22 - - 0.0
22/02:30am 24.2 18.8 12.2 47 6.9 ESE 32 44 17 24 - - 0.0
22/02:00am 24.4 20.1 13.3 50 6.5 SE 28 43 15 23 - - 0.0
22/01:30am 24.1 21.2 13.9 53 6.1 SE 22 33 12 18 - - 0.0
22/01:00am 22.4 20.8 16.0 67 3.9 SSE 19 24 10 13 - - 0.0
22/12:30am 22.1 20.3 16.1 69 3.7 SSE 20 24 11 13 - - 0.0
22/12:00am 22.3 19.8 16.1 68 3.8 SSE 24 28 13 15 - - 0.0
 
Date/Time
WST
Temp
°C
App
Temp
°C
Dew
Point
°C
Rel
Hum
%
Delta-T
°C
Wind Press
QNH
hPa
Press
MSL
hPa
Rain since
9am
mm
Dir  Spd
km/h
Gust
km/h
Spd
kts
Gust
kts
21/11:30pm 22.8 19.9 16.1 66 4.1 S 26 30 14 16 - - 0.0
21/11:00pm 22.8 20.3 16.1 66 4.1 S 24 33 13 18 - - 0.0
21/10:30pm 22.9 19.7 16.2 66 4.1 S 28 33 15 18 - - 0.0
21/10:00pm 23.1 19.5 16.2 65 4.2 S 30 39 16 21 - - 0.0
21/09:30pm 23.7 19.9 15.7 61 4.9 S 30 37 16 20 - - 0.0
21/09:00pm 24.3 20.9 15.8 59 5.2 S 28 33 15 18 - - 0.0
21/08:30pm 24.9 21.4 15.5 56 5.7 S 28 35 15 19 - - 0.0
21/08:00pm 25.7 21.7 15.1 52 6.5 S 30 37 16 20 - - 0.0
21/07:30pm 26.6 22.5 15.0 49 7.1 S 30 37 16 20 - - 0.0
21/07:00pm 28.0 23.5 15.3 46 7.8 S 33 43 18 23 - - 0.0
21/06:30pm 29.1 23.4 14.1 40 9.1 SSW 37 46 20 25 - - 0.0

Other formats

Comma delimited format used in spreadsheet applications
http://www.bom.gov.au/fwo/IDW60801/IDW60801.94603.axf

JavaScript Object Notation format (JSON) in row-major order
http://www.bom.gov.au/fwo/IDW60801/IDW60801.94603.json

Data quality

Most of these data are generated automatically and are frequently updated. Quality checks on data are not normally performed. It is possible for incorrect values to appear. Refer to information at About Latest Weather Observations and please check the disclaimer before using these data.